createdAt,value
2023-10-21T00:01:09.838Z,73.17
2023-10-21T00:06:13.722Z,73.16
2023-10-21T00:11:18.252Z,73.31
2023-10-21T00:16:22.299Z,72.93
2023-10-21T00:21:26.309Z,73.24
2023-10-21T00:26:30.555Z,73.12
2023-10-21T00:31:34.497Z,73.17
2023-10-21T00:36:38.992Z,72.79
2023-10-21T00:41:44.359Z,72.98
2023-10-21T00:46:48.590Z,72.89
2023-10-21T00:51:52.809Z,72.81
2023-10-21T00:56:56.796Z,72.63
2023-10-21T01:02:01.416Z,73.08
2023-10-21T01:07:05.448Z,72.92
2023-10-21T01:12:09.653Z,72.61
2023-10-21T01:17:13.567Z,72.76
2023-10-21T01:22:17.893Z,72.99
2023-10-21T01:27:22.346Z,73.01
2023-10-21T01:32:27.260Z,73.03
2023-10-21T01:37:31.279Z,72.56
2023-10-21T01:42:37.035Z,72.48
2023-10-21T01:47:42.023Z,71.64
2023-10-21T01:52:46.070Z,70.99
2023-10-21T01:57:50.031Z,70.64
2023-10-21T02:02:56.282Z,70.86
2023-10-21T02:08:00.553Z,69.77
2023-10-21T02:13:04.490Z,69.28
2023-10-21T02:18:10.441Z,68.82
2023-10-21T02:23:15.282Z,68.80
2023-10-21T02:28:19.876Z,68.89
2023-10-21T02:33:25.288Z,68.34
2023-10-21T02:38:29.984Z,67.98
2023-10-21T02:43:35.159Z,67.85
2023-10-21T02:48:40.614Z,67.20
2023-10-21T02:53:45.361Z,66.82
2023-10-21T02:58:49.434Z,66.47
2023-10-21T03:03:54.815Z,66.38
2023-10-21T03:08:59.133Z,66.05
2023-10-21T03:14:03.129Z,65.73
2023-10-21T03:19:06.914Z,65.97
2023-10-21T03:24:11.379Z,65.34
2023-10-21T03:29:15.489Z,65.84
2023-10-21T03:34:19.464Z,65.66
2023-10-21T03:39:23.455Z,65.28
2023-10-21T03:44:27.864Z,65.98
2023-10-21T03:49:32.441Z,65.62
2023-10-21T03:54:36.598Z,65.99
2023-10-21T03:59:40.794Z,65.64
2023-10-21T04:04:44.760Z,65.63
2023-10-21T04:09:48.723Z,65.58
2023-10-21T04:14:52.715Z,65.63
2023-10-21T04:19:56.593Z,64.87
2023-10-21T04:25:03.610Z,64.63
2023-10-21T04:30:09.748Z,65.08
2023-10-21T04:35:14.587Z,65.10
2023-10-21T04:40:18.761Z,64.60
2023-10-21T04:45:22.792Z,63.88
2023-10-21T04:50:28.393Z,63.66
2023-10-21T04:55:32.725Z,63.38
2023-10-21T05:00:36.761Z,62.82
2023-10-21T05:05:43.324Z,62.76
2023-10-21T05:10:47.692Z,62.67
2023-10-21T05:15:52.232Z,62.55
2023-10-21T05:20:56.129Z,62.30
2023-10-21T05:26:00.653Z,62.22
2023-10-21T05:31:05.163Z,62.10
2023-10-21T05:36:09.470Z,61.76
2023-10-21T05:41:13.306Z,61.87
2023-10-21T05:46:17.344Z,61.92
2023-10-21T05:51:21.291Z,62.13
2023-10-21T05:56:25.274Z,62.20
2023-10-21T06:01:29.393Z,61.78
2023-10-21T06:06:33.476Z,61.57
2023-10-21T06:11:37.983Z,61.53
2023-10-21T06:16:42.098Z,61.34
2023-10-21T06:21:45.987Z,61.25
2023-10-21T06:26:50.107Z,61.07
2023-10-21T06:31:54.236Z,61.39
2023-10-21T06:36:58.323Z,60.98
2023-10-21T06:42:02.582Z,61.12
2023-10-21T06:47:06.486Z,61.20
2023-10-21T06:52:10.446Z,61.34
2023-10-21T06:57:22.250Z,60.98
2023-10-21T07:02:26.175Z,60.81
2023-10-21T07:07:30.759Z,60.97
2023-10-21T07:12:36.510Z,61.15
2023-10-21T07:17:40.563Z,60.45
2023-10-21T07:22:51.299Z,60.16
2023-10-21T07:27:55.242Z,60.10
2023-10-21T07:32:59.449Z,60.19
2023-10-21T07:38:03.508Z,60.28
2023-10-21T07:43:07.407Z,60.31
2023-10-21T07:48:12.697Z,60.26
2023-10-21T07:53:16.642Z,60.75
2023-10-21T07:58:20.616Z,60.89
2023-10-21T08:03:24.519Z,61.44
2023-10-21T08:08:30.361Z,62.23
2023-10-21T08:13:34.269Z,63.13
2023-10-21T08:18:38.370Z,64.75
2023-10-21T08:23:42.990Z,66.25
2023-10-21T08:28:47.060Z,67.56
2023-10-21T08:33:51.312Z,68.76
2023-10-21T08:38:55.764Z,69.77
2023-10-21T08:43:59.826Z,70.94
2023-10-21T08:49:05.525Z,71.94
2023-10-21T08:54:10.362Z,72.60
2023-10-21T08:59:16.545Z,73.13
2023-10-21T09:04:24.384Z,73.57
2023-10-21T09:09:31.241Z,73.91
2023-10-21T09:14:57.691Z,74.49
2023-10-21T09:20:01.973Z,74.75
2023-10-21T09:25:21.297Z,75.12
2023-10-21T09:30:32.628Z,75.26
2023-10-21T09:35:39.165Z,75.62
2023-10-21T09:40:44.154Z,76.05
2023-10-21T09:45:51.854Z,76.16
2023-10-21T09:51:01.349Z,76.52
2023-10-21T09:56:05.662Z,76.76
2023-10-21T10:01:12.614Z,76.75
2023-10-21T10:06:17.083Z,76.77
2023-10-21T10:11:23.392Z,76.97
2023-10-21T10:16:29.195Z,76.77
2023-10-21T10:21:36.005Z,76.12
2023-10-21T10:26:40.509Z,75.88
2023-10-21T10:31:49.305Z,75.53
2023-10-21T10:36:54.062Z,75.58
2023-10-21T10:42:00.261Z,74.10
2023-10-21T10:47:06.690Z,73.99
2023-10-21T10:52:10.665Z,73.67
2023-10-21T10:57:19.033Z,73.67
2023-10-21T11:02:25.103Z,73.39
2023-10-21T11:07:33.147Z,73.43
2023-10-21T11:12:38.504Z,72.35
2023-10-21T11:17:42.586Z,72.93
2023-10-21T11:22:47.142Z,73.60
2023-10-21T11:27:51.611Z,73.63
2023-10-21T11:32:57.030Z,73.72
2023-10-21T11:38:02.105Z,72.60
2023-10-21T11:43:10.629Z,72.24
2023-10-21T11:48:18.474Z,71.78
2023-10-21T11:53:22.700Z,70.68
2023-10-21T11:58:48.184Z,69.65
2023-10-21T12:04:10.933Z,69.39
2023-10-21T12:09:27.093Z,69.12
2023-10-21T12:14:46.225Z,69.04
2023-10-21T12:20:08.930Z,68.59
2023-10-21T12:25:31.413Z,68.71
2023-10-21T12:31:01.430Z,68.46
2023-10-21T12:36:24.281Z,67.93
2023-10-21T12:41:28.394Z,67.60
2023-10-21T12:46:37.139Z,67.09
2023-10-21T12:51:41.296Z,67.16
2023-10-21T12:56:45.266Z,66.75
2023-10-21T13:01:49.399Z,67.18
2023-10-21T13:06:55.534Z,67.03
2023-10-21T13:11:59.670Z,66.51
2023-10-21T13:17:10.019Z,67.22
2023-10-21T13:22:14.090Z,67.72
2023-10-21T13:27:18.042Z,67.97
2023-10-21T13:32:24.204Z,68.07
2023-10-21T13:37:28.174Z,68.44
2023-10-21T13:42:32.187Z,68.79
2023-10-21T13:47:36.104Z,68.50
2023-10-21T13:52:40.984Z,68.95
2023-10-21T13:57:47.328Z,68.32
2023-10-21T14:02:51.488Z,68.92
2023-10-21T14:07:55.879Z,69.70
2023-10-21T14:13:00.051Z,70.33
2023-10-21T14:18:08.862Z,70.74
2023-10-21T14:23:16.155Z,70.94
2023-10-21T14:28:20.861Z,71.72
2023-10-21T14:34:05.687Z,72.08
2023-10-21T14:39:09.598Z,72.68
2023-10-21T14:44:13.733Z,72.68
2023-10-21T14:49:17.574Z,73.44
2023-10-21T14:54:21.653Z,73.86
2023-10-21T14:59:26.698Z,74.13
2023-10-21T15:04:31.092Z,74.53
2023-10-21T15:09:35.185Z,74.24
2023-10-21T15:14:48.423Z,74.60
2023-10-21T15:19:53.108Z,75.00
2023-10-21T15:24:57.018Z,74.93
2023-10-21T15:30:01.834Z,74.96
2023-10-21T15:35:08.333Z,75.14
2023-10-21T15:40:15.230Z,75.16
2023-10-21T15:45:19.274Z,75.20
2023-10-21T15:50:23.258Z,75.02
2023-10-21T15:55:27.885Z,75.33
2023-10-21T16:00:32.028Z,75.63
2023-10-21T16:05:36.723Z,76.06
2023-10-21T16:10:41.894Z,75.80
2023-10-21T16:15:45.820Z,75.98
2023-10-21T16:20:49.828Z,76.75
2023-10-21T16:25:53.879Z,76.58
2023-10-21T16:30:57.832Z,76.56
2023-10-21T16:36:03.828Z,76.90
2023-10-21T16:41:10.530Z,76.92
2023-10-21T16:46:14.620Z,77.01
2023-10-21T16:51:18.591Z,76.44
2023-10-21T16:56:22.591Z,76.75
2023-10-21T17:01:27.511Z,76.61
2023-10-21T17:06:33.005Z,76.59
2023-10-21T17:11:38.239Z,77.08
2023-10-21T17:16:42.893Z,77.00
2023-10-21T17:21:47.122Z,76.51
2023-10-21T17:26:51.834Z,76.78
2023-10-21T17:31:55.927Z,76.33
2023-10-21T17:37:00.314Z,76.05
2023-10-21T17:42:04.906Z,75.48
2023-10-21T17:47:08.957Z,75.22
2023-10-21T17:52:14.078Z,74.49
2023-10-21T17:57:18.024Z,74.38
2023-10-21T18:02:22.241Z,73.29
2023-10-21T18:07:26.133Z,73.15
2023-10-21T18:12:30.292Z,72.72
2023-10-21T18:17:35.279Z,71.98
2023-10-21T18:22:39.340Z,72.06
2023-10-21T18:27:43.538Z,71.67
2023-10-21T18:32:48.461Z,71.86
2023-10-21T18:37:58.939Z,71.56
2023-10-21T18:43:03.090Z,71.22
2023-10-21T18:48:07.496Z,71.26
2023-10-21T18:53:11.732Z,71.38
2023-10-21T18:58:16.013Z,71.11
2023-10-21T19:03:20.298Z,71.34
2023-10-21T19:08:25.845Z,71.13
2023-10-21T19:13:29.687Z,70.50
2023-10-21T19:18:33.750Z,71.09
2023-10-21T19:23:38.291Z,71.33
2023-10-21T19:28:42.370Z,70.88
2023-10-21T19:33:47.027Z,71.12
2023-10-21T19:38:53.053Z,70.73
2023-10-21T19:44:00.065Z,70.67
2023-10-21T19:49:08.814Z,70.73
2023-10-21T19:54:13.061Z,70.69
2023-10-21T19:59:17.117Z,70.72
2023-10-21T20:04:21.393Z,71.12
2023-10-21T20:09:25.375Z,70.79
2023-10-21T20:14:29.532Z,70.51
2023-10-21T20:19:33.796Z,70.20
2023-10-21T20:24:38.564Z,69.98
2023-10-21T20:29:42.821Z,69.77
2023-10-21T20:34:46.911Z,69.92
2023-10-21T20:39:51.231Z,69.71
2023-10-21T20:44:55.546Z,69.70
2023-10-21T20:49:59.790Z,69.68
2023-10-21T20:55:03.749Z,69.93
2023-10-21T21:00:12.983Z,69.54
2023-10-21T21:05:17.034Z,70.03
2023-10-21T21:10:22.888Z,69.61
2023-10-21T21:15:28.163Z,69.55
2023-10-21T21:20:32.185Z,70.03
2023-10-21T21:25:36.131Z,70.05
2023-10-21T21:30:40.212Z,69.82
2023-10-21T21:36:13.754Z,69.97
2023-10-21T21:41:22.622Z,70.04
2023-10-21T21:46:26.489Z,70.01
2023-10-21T21:51:31.067Z,70.42
2023-10-21T21:56:35.380Z,70.88
2023-10-21T22:01:39.330Z,70.86
2023-10-21T22:06:44.197Z,70.43
2023-10-21T22:11:49.539Z,70.54
2023-10-21T22:16:53.899Z,70.07
2023-10-21T22:21:57.950Z,70.22
2023-10-21T22:27:03.069Z,70.38
2023-10-21T22:32:08.368Z,70.59
2023-10-21T22:37:12.322Z,70.13
2023-10-21T22:42:16.148Z,70.34
2023-10-21T22:47:20.125Z,70.75
2023-10-21T22:52:24.077Z,70.89
2023-10-21T22:57:27.902Z,70.66
2023-10-21T23:02:32.088Z,70.38
2023-10-21T23:07:38.259Z,70.49
2023-10-21T23:12:42.388Z,70.77
2023-10-21T23:17:48.099Z,70.94
2023-10-21T23:22:53.100Z,70.69
2023-10-21T23:27:58.478Z,70.83
2023-10-21T23:33:02.484Z,70.35
2023-10-21T23:38:06.945Z,70.32
2023-10-21T23:43:13.585Z,70.15
2023-10-21T23:48:17.534Z,70.12
2023-10-21T23:53:21.701Z,70.20
2023-10-21T23:58:25.567Z,70.18
